KPSP/PSP METAR and TAF weather

Enter ICAO airport designator
Station Type Date Time Source
KPSP METAR 2022/11/26 08:53 UTC NOAA

KPSP 260853Z AUTO 33008KT 10SM CLR 11/M06 A3018 RMK AO2 SLP219 T01111056 58014


Station Type Date Time Source
KPSP Decoded METAR 2022/11/26 08:53 UTC NOAA

PALM SPRINGS REGIONAL AIRPORT , CA, United States (KPSP) 33-50N 116-30W 135M
Nov 26, 2022 - 03:53 AM EST / 2022.11.26 0853 UTC
Wind: from the NNW (330 degrees) at 9 MPH (8 KT):0
Visibility: 10 mile(s):0
Sky conditions: clear
Temperature: 52.0 F (11.1 C)
Dew Point: 21.9 F (-5.6 C)
Relative Humidity: 30%
Pressure (altimeter): 30.18 in. Hg (1022 hPa)
Pressure tendency: 0.04 inches (1.4 hPa) lower than three hours ago
ob: KPSP 260853Z AUTO 33008KT 10SM CLR 11/M06 A3018 RMK AO2 SLP219 T01111056 58014
cycle: 9

Station Type Date Time Source
KPSP TAF 2022/11/26 06:22 UTC NOAA

TAF KPSP 260520Z 2606/2706 33007KT P6SM SKC
FM261900 14006KT P6SM SKC
FM270100 VRB04KT P6SM SKC

Example: see airport list